Time;durP1;ratioP1;P1;durP2;ratioP2;P2;SDS_P1;SDS_P2;PMS_P1;PMS_P2;Temp;Humidity;BMP_temperature;BMP_pressure;BME280_temperature;BME280_humidity;BME280_pressure;Samples;Min_cycle;Max_cycle;Signal;HPM_P1;HPM_P2
2021/06/13 00:01:47;;;;;;;;;;;25.80;94.40;;;;;;5084029;28;19905;-55
2021/06/13 00:04:13;;;;;;;;;;;25.80;94.10;;;;;;5084508;28;19919;-55
2021/06/13 00:06:40;;;;;;;;;;;25.80;94.10;;;;;;5084105;28;20185;-57
2021/06/13 00:09:06;;;;;;;;;;;25.80;94.00;;;;;;5084033;28;19916;-54
2021/06/13 00:11:33;;;;;;;;;;;25.80;94.00;;;;;;5084419;28;19967;-54
2021/06/13 00:13:59;;;;;;;;;;;25.80;94.00;;;;;;5084287;28;19935;-54
2021/06/13 00:16:25;;;;;;;;;;;25.80;94.00;;;;;;5065997;28;19916;-55
2021/06/13 00:18:51;;;;;;;;;;;25.80;94.00;;;;;;5084177;28;19970;-54
2021/06/13 00:21:21;;;;;;;;;;;25.80;94.00;;;;;;5084120;28;20193;-55
2021/06/13 00:23:47;;;;;;;;;;;25.80;94.00;;;;;;5083917;28;19912;-56
2021/06/13 00:26:14;;;;;;;;;;;25.80;94.00;;;;;;5083893;28;19904;-57
2021/06/13 00:28:40;;;;;;;;;;;25.80;94.00;;;;;;5083801;28;20135;-55
2021/06/13 00:31:06;;;;;;;;;;;25.80;93.90;;;;;;5065879;28;19905;-55
2021/06/13 00:33:33;;;;;;;;;;;25.70;93.90;;;;;;5066064;28;20101;-59
2021/06/13 00:35:59;;;;;;;;;;;25.70;93.90;;;;;;5083805;28;19976;-58
2021/06/13 00:38:26;;;;;;;;;;;25.70;94.00;;;;;;5083813;28;20242;-56
2021/06/13 00:40:52;;;;;;;;;;;25.70;94.00;;;;;;5083738;28;20097;-56
2021/06/13 00:43:18;;;;;;;;;;;25.60;94.00;;;;;;5083670;28;19974;-58
2021/06/13 00:45:48;;;;;;;;;;;25.60;94.00;;;;;;5083787;28;19904;-54
2021/06/13 00:48:14;;;;;;;;;;;25.60;94.00;;;;;;5083583;28;19950;-56
2021/06/13 00:50:42;;;;;;;;;;;25.60;94.00;;;;;;5083753;28;19908;-56
2021/06/13 00:53:09;;;;;;;;;;;25.60;94.00;;;;;;5083966;28;19943;-52
2021/06/13 00:55:36;;;;;;;;;;;25.60;94.00;;;;;;5085706;28;19952;-55
2021/06/13 00:58:03;;;;;;;;;;;25.60;94.00;;;;;;5087217;28;19904;-55
2021/06/13 01:00:29;;;;;;;;;;;25.60;94.10;;;;;;5086957;28;19912;-53
2021/06/13 01:02:56;;;;;;;;;;;25.70;94.20;;;;;;5086932;28;19911;-55
2021/06/13 01:05:22;;;;;;;;;;;25.60;94.10;;;;;;5087539;28;19917;-56
2021/06/13 01:08:04;;;;;;;;;;;25.70;94.10;;;;;;5087112;28;19984;-56
2021/06/13 01:10:37;;;;;;;;;;;25.70;94.10;;;;;;5069073;28;19912;-56
2021/06/13 01:13:14;;;;;;;;;;;25.60;94.20;;;;;;5086877;28;20296;-53
2021/06/13 01:15:47;;;;;;;;;;;25.60;94.30;;;;;;5086881;28;19915;-55
2021/06/13 01:18:22;;;;;;;;;;;25.60;94.40;;;;;;5086805;28;19909;-56
2021/06/13 01:20:55;;;;;;;;;;;25.60;94.30;;;;;;5086818;28;20137;-54
2021/06/13 01:23:39;;;;;;;;;;;25.60;94.20;;;;;;5086878;28;19911;-57
2021/06/13 01:26:15;;;;;;;;;;;25.60;94.20;;;;;;5086594;28;19947;-60
2021/06/13 01:28:44;;;;;;;;;;;25.60;94.10;;;;;;5087121;28;19969;-57
2021/06/13 01:31:10;;;;;;;;;;;25.60;94.10;;;;;;5086504;28;19908;-57
2021/06/13 01:33:37;;;;;;;;;;;25.60;94.20;;;;;;5086785;28;19987;-58
2021/06/13 01:36:04;;;;;;;;;;;25.60;94.10;;;;;;5086456;28;19952;-54
2021/06/13 01:38:30;;;;;;;;;;;25.60;94.20;;;;;;5086617;28;19916;-55
2021/06/13 01:41:00;;;;;;;;;;;25.60;94.10;;;;;;5068699;28;19909;-54
2021/06/13 01:43:28;;;;;;;;;;;25.60;94.10;;;;;;5086288;28;20147;-54
2021/06/13 01:45:54;;;;;;;;;;;25.60;94.00;;;;;;5086137;28;19945;-55
2021/06/13 01:48:21;;;;;;;;;;;25.60;94.00;;;;;;5086868;28;19913;-55
2021/06/13 01:50:48;;;;;;;;;;;25.50;94.00;;;;;;5086362;28;19904;-59
2021/06/13 01:53:16;;;;;;;;;;;25.60;94.00;;;;;;5086267;28;19932;-55
2021/06/13 01:55:45;;;;;;;;;;;25.50;94.00;;;;;;5086121;28;19917;-56
2021/06/13 01:58:12;;;;;;;;;;;25.50;94.00;;;;;;5086257;28;19905;-54
2021/06/13 02:00:39;;;;;;;;;;;25.60;94.00;;;;;;5085952;28;19905;-56
2021/06/13 02:03:06;;;;;;;;;;;25.60;94.00;;;;;;5086063;28;20208;-55
2021/06/13 02:05:33;;;;;;;;;;;25.50;94.00;;;;;;5085802;28;19911;-55
2021/06/13 02:08:01;;;;;;;;;;;25.50;94.00;;;;;;5067743;28;19979;-54
2021/06/13 02:10:28;;;;;;;;;;;25.50;94.00;;;;;;5086428;28;20101;-56
2021/06/13 02:12:55;;;;;;;;;;;25.50;94.00;;;;;;5068013;28;19904;-58
2021/06/13 02:15:23;;;;;;;;;;;25.50;94.10;;;;;;5086285;28;20220;-55
2021/06/13 02:17:51;;;;;;;;;;;25.50;94.10;;;;;;5085910;28;19905;-53
2021/06/13 02:20:22;;;;;;;;;;;25.50;94.10;;;;;;5086312;28;19912;-55
2021/06/13 02:22:48;;;;;;;;;;;25.50;94.10;;;;;;5067905;28;19977;-57
2021/06/13 02:25:15;;;;;;;;;;;25.50;94.10;;;;;;5086208;28;20066;-58
2021/06/13 02:27:41;;;;;;;;;;;25.50;94.10;;;;;;5085654;28;19911;-59
2021/06/13 02:30:09;;;;;;;;;;;25.50;94.20;;;;;;5085642;28;19913;-53
2021/06/13 02:32:36;;;;;;;;;;;25.50;94.20;;;;;;5085650;28;19935;-57
2021/06/13 02:35:04;;;;;;;;;;;25.50;94.10;;;;;;5085729;28;19944;-56
2021/06/13 02:37:31;;;;;;;;;;;25.50;94.10;;;;;;5085488;28;19905;-57
2021/06/13 02:39:57;;;;;;;;;;;25.50;94.10;;;;;;5085941;28;20001;-57
2021/06/13 02:42:23;;;;;;;;;;;25.50;94.10;;;;;;5085213;28;19904;-55
2021/06/13 02:44:49;;;;;;;;;;;25.50;94.10;;;;;;5085432;28;19919;-58
2021/06/13 02:47:16;;;;;;;;;;;25.50;94.00;;;;;;5085586;28;19904;-55
2021/06/13 02:49:42;;;;;;;;;;;25.50;94.00;;;;;;5085367;28;19919;-57
2021/06/13 02:52:14;;;;;;;;;;;25.50;94.00;;;;;;5085396;28;19904;-54
2021/06/13 02:54:42;;;;;;;;;;;25.40;94.00;;;;;;5085145;28;19920;-54
2021/06/13 02:57:11;;;;;;;;;;;25.40;94.00;;;;;;5084907;28;19912;-55
2021/06/13 02:59:39;;;;;;;;;;;25.50;94.10;;;;;;5085219;28;20207;-57
2021/06/13 03:02:07;;;;;;;;;;;25.40;94.00;;;;;;5085229;28;19932;-53
2021/06/13 03:04:35;;;;;;;;;;;25.50;94.10;;;;;;5085001;28;20189;-62
2021/06/13 03:07:01;;;;;;;;;;;25.40;94.00;;;;;;5084770;28;19973;-57
2021/06/13 03:09:29;;;;;;;;;;;25.50;94.00;;;;;;5085227;28;19944;-56
2021/06/13 03:11:56;;;;;;;;;;;25.50;94.10;;;;;;5084738;28;19931;-57
2021/06/13 03:14:23;;;;;;;;;;;25.40;94.10;;;;;;5084737;28;19916;-53
2021/06/13 03:16:49;;;;;;;;;;;25.40;94.10;;;;;;5084605;28;19908;-56
2021/06/13 03:19:16;;;;;;;;;;;25.40;94.10;;;;;;5084702;28;19916;-53
2021/06/13 03:21:44;;;;;;;;;;;25.40;94.10;;;;;;5084796;28;19912;-58
2021/06/13 03:24:11;;;;;;;;;;;25.40;94.10;;;;;;5085146;28;19919;-52
2021/06/13 03:26:38;;;;;;;;;;;25.40;94.10;;;;;;5084519;28;19936;-53
2021/06/13 03:29:05;;;;;;;;;;;25.40;94.20;;;;;;5084420;28;19912;-57
2021/06/13 03:31:32;;;;;;;;;;;25.30;94.10;;;;;;5084988;28;19904;-54
2021/06/13 03:33:58;;;;;;;;;;;25.40;94.20;;;;;;5084776;28;19913;-55
2021/06/13 03:36:24;;;;;;;;;;;25.30;94.20;;;;;;5084228;28;19915;-53
2021/06/13 03:38:52;;;;;;;;;;;25.30;94.20;;;;;;5084625;28;19940;-55
2021/06/13 03:41:21;;;;;;;;;;;25.30;94.20;;;;;;5084683;28;19905;-54
2021/06/13 03:43:52;;;;;;;;;;;25.30;94.20;;;;;;5084395;28;20189;-55
2021/06/13 03:46:18;;;;;;;;;;;25.30;94.20;;;;;;5084645;28;20185;-56
2021/06/13 03:48:45;;;;;;;;;;;25.30;94.20;;;;;;5084661;28;19924;-53
2021/06/13 03:51:12;;;;;;;;;;;25.30;94.20;;;;;;5084372;28;19948;-53
2021/06/13 03:53:46;;;;;;;;;;;25.30;94.20;;;;;;5084751;28;19920;-53
2021/06/13 03:56:20;;;;;;;;;;;25.30;94.20;;;;;;5084204;28;20227;-56
2021/06/13 03:58:47;;;;;;;;;;;25.30;94.30;;;;;;5084574;28;20255;-56
2021/06/13 04:01:15;;;;;;;;;;;25.30;94.30;;;;;;5084478;28;19915;-54
2021/06/13 04:03:43;;;;;;;;;;;25.30;94.50;;;;;;5084156;28;19908;-52
2021/06/13 04:06:09;;;;;;;;;;;25.30;94.40;;;;;;5066399;28;19916;-58
2021/06/13 04:08:37;;;;;;;;;;;25.30;94.30;;;;;;5084298;28;19908;-57
2021/06/13 04:11:04;;;;;;;;;;;25.30;94.30;;;;;;5083977;28;19909;-54
2021/06/13 04:13:32;;;;;;;;;;;25.30;94.40;;;;;;5084387;28;19917;-53
2021/06/13 04:15:59;;;;;;;;;;;25.30;94.40;;;;;;5084258;28;19943;-53
2021/06/13 04:18:26;;;;;;;;;;;25.30;94.40;;;;;;5083982;28;19961;-52
2021/06/13 04:20:52;;;;;;;;;;;25.30;94.50;;;;;;5084176;28;20212;-54
2021/06/13 04:23:18;;;;;;;;;;;25.30;94.50;;;;;;5083949;28;19943;-54
2021/06/13 04:25:45;;;;;;;;;;;25.30;94.50;;;;;;5084055;28;19971;-54
2021/06/13 04:28:15;;;;;;;;;;;25.30;94.40;;;;;;5083873;28;19950;-55
2021/06/13 04:30:46;;;;;;;;;;;25.30;94.50;;;;;;5086964;28;19940;-54
2021/06/13 04:33:12;;;;;;;;;;;25.30;94.50;;;;;;5087612;28;19905;-56
2021/06/13 04:35:38;;;;;;;;;;;25.30;94.40;;;;;;5087643;28;19913;-55
2021/06/13 04:38:04;;;;;;;;;;;25.30;94.40;;;;;;5087583;28;19908;-56
2021/06/13 04:40:30;;;;;;;;;;;25.30;94.40;;;;;;5087718;28;20235;-54
2021/06/13 04:42:57;;;;;;;;;;;25.30;94.40;;;;;;5087674;28;19912;-57
2021/06/13 04:45:23;;;;;;;;;;;25.30;94.40;;;;;;5088387;28;19919;-56
2021/06/13 04:47:49;;;;;;;;;;;25.30;94.30;;;;;;5087981;28;20213;-58
2021/06/13 04:50:15;;;;;;;;;;;25.30;94.30;;;;;;5087672;28;19908;-57
2021/06/13 04:52:43;;;;;;;;;;;25.30;94.20;;;;;;5087448;28;19909;-57
2021/06/13 04:55:16;;;;;;;;;;;25.30;94.20;;;;;;5087355;28;19921;-56
2021/06/13 04:57:53;;;;;;;;;;;25.30;94.10;;;;;;5087626;28;19912;-58
2021/06/13 05:00:20;;;;;;;;;;;25.30;94.10;;;;;;5087578;28;19912;-54
2021/06/13 05:02:46;;;;;;;;;;;25.30;94.10;;;;;;5087392;28;20268;-57
2021/06/13 05:05:15;;;;;;;;;;;25.20;93.90;;;;;;5087822;28;19913;-56
2021/06/13 05:07:41;;;;;;;;;;;25.30;93.80;;;;;;5087634;28;19975;-55
2021/06/13 05:10:08;;;;;;;;;;;25.30;93.60;;;;;;5087506;28;19919;-55
2021/06/13 05:12:54;;;;;;;;;;;25.30;93.60;;;;;;5087040;28;19946;-54
2021/06/13 05:15:21;;;;;;;;;;;25.30;93.50;;;;;;5087432;28;20100;-54
2021/06/13 05:17:48;;;;;;;;;;;25.20;93.60;;;;;;5087318;28;19934;-54
2021/06/13 05:20:14;;;;;;;;;;;25.20;93.60;;;;;;5087588;28;20189;-54
2021/06/13 05:22:53;;;;;;;;;;;25.20;93.60;;;;;;5086927;28;19911;-55
2021/06/13 05:25:19;;;;;;;;;;;25.20;93.60;;;;;;5087535;28;20013;-56
2021/06/13 05:27:45;;;;;;;;;;;25.20;93.70;;;;;;5086774;28;19908;-61
2021/06/13 05:30:12;;;;;;;;;;;25.20;93.80;;;;;;5087043;28;19954;-55
2021/06/13 05:32:38;;;;;;;;;;;25.10;93.80;;;;;;5086912;28;20093;-56
2021/06/13 05:35:04;;;;;;;;;;;25.10;93.80;;;;;;5087199;28;20130;-56
2021/06/13 05:37:30;;;;;;;;;;;25.10;93.90;;;;;;5086519;28;19958;-53
2021/06/13 05:39:57;;;;;;;;;;;25.10;93.90;;;;;;5087502;28;19983;-58
2021/06/13 05:42:23;;;;;;;;;;;25.10;93.90;;;;;;5086448;28;20136;-56
2021/06/13 05:44:49;;;;;;;;;;;25.10;94.00;;;;;;5087171;28;20057;-54
2021/06/13 05:47:15;;;;;;;;;;;25.10;94.00;;;;;;5086723;28;19905;-55
2021/06/13 05:49:41;;;;;;;;;;;25.10;94.00;;;;;;5086684;28;19912;-55
2021/06/13 05:52:07;;;;;;;;;;;25.10;94.00;;;;;;5086479;28;19911;-52
2021/06/13 05:54:39;;;;;;;;;;;25.10;94.00;;;;;;5086612;28;19999;-56
2021/06/13 05:57:05;;;;;;;;;;;25.10;94.00;;;;;;5086353;28;19908;-56
2021/06/13 05:59:31;;;;;;;;;;;25.10;94.10;;;;;;5086761;28;19913;-54
2021/06/13 06:01:57;;;;;;;;;;;25.10;94.10;;;;;;5086486;28;19904;-56
2021/06/13 06:04:23;;;;;;;;;;;25.10;94.00;;;;;;5086258;28;20193;-53
2021/06/13 06:06:50;;;;;;;;;;;25.10;94.00;;;;;;5085967;28;19911;-55
2021/06/13 06:09:16;;;;;;;;;;;25.10;93.90;;;;;;5086104;28;19917;-56
2021/06/13 06:11:42;;;;;;;;;;;25.10;93.90;;;;;;5086494;28;20174;-63
2021/06/13 06:14:12;;;;;;;;;;;25.10;93.90;;;;;;5086569;28;19991;-59
2021/06/13 06:16:38;;;;;;;;;;;25.10;93.90;;;;;;5086155;28;19973;-55
2021/06/13 06:19:04;;;;;;;;;;;25.10;93.90;;;;;;5086408;28;19912;-57
2021/06/13 06:21:30;;;;;;;;;;;25.10;93.90;;;;;;5085969;28;19905;-55
2021/06/13 06:23:57;;;;;;;;;;;25.10;94.00;;;;;;5085823;28;19912;-55
2021/06/13 06:26:23;;;;;;;;;;;25.10;94.10;;;;;;5085580;28;19980;-59
2021/06/13 06:28:49;;;;;;;;;;;25.10;94.10;;;;;;5085761;28;19913;-57
2021/06/13 06:31:15;;;;;;;;;;;25.10;94.20;;;;;;5085812;28;19950;-56
2021/06/13 06:33:41;;;;;;;;;;;25.10;94.20;;;;;;5085576;28;19912;-53
2021/06/13 06:36:07;;;;;;;;;;;25.00;94.20;;;;;;5085414;28;19909;-55
2021/06/13 06:38:34;;;;;;;;;;;25.10;94.20;;;;;;5085570;28;19935;-57
2021/06/13 06:41:00;;;;;;;;;;;25.10;94.20;;;;;;5085524;28;19912;-54
2021/06/13 06:43:26;;;;;;;;;;;25.10;94.20;;;;;;5085734;28;19916;-54
2021/06/13 06:45:53;;;;;;;;;;;25.10;94.20;;;;;;5085754;28;20078;-54
2021/06/13 06:48:19;;;;;;;;;;;25.10;94.20;;;;;;5085641;28;19905;-57
2021/06/13 06:50:45;;;;;;;;;;;25.10;94.20;;;;;;5085593;28;19904;-57
2021/06/13 06:53:12;;;;;;;;;;;25.10;94.20;;;;;;5084375;28;19927;-54
2021/06/13 06:55:38;;;;;;;;;;;25.10;94.20;;;;;;5085245;28;20205;-55
2021/06/13 06:58:04;;;;;;;;;;;25.10;94.20;;;;;;5084955;28;19911;-53
2021/06/13 07:00:30;;;;;;;;;;;25.10;94.20;;;;;;5085699;28;19905;-54
2021/06/13 07:02:58;;;;;;;;;;;25.10;94.20;;;;;;5085390;28;19912;-55
2021/06/13 07:05:24;;;;;;;;;;;25.10;94.30;;;;;;5085519;28;20057;-58
2021/06/13 07:07:51;;;;;;;;;;;25.00;94.20;;;;;;5085068;28;19905;-54
2021/06/13 07:10:17;;;;;;;;;;;25.00;94.20;;;;;;5085601;28;20070;-56
2021/06/13 07:12:43;;;;;;;;;;;25.00;94.20;;;;;;5084742;28;19911;-53
2021/06/13 07:15:10;;;;;;;;;;;25.10;94.30;;;;;;5085517;28;20145;-55
2021/06/13 07:17:36;;;;;;;;;;;25.10;94.20;;;;;;5085588;28;19912;-55
2021/06/13 07:20:04;;;;;;;;;;;25.00;94.20;;;;;;5085346;28;20196;-55
2021/06/13 07:22:30;;;;;;;;;;;25.00;94.30;;;;;;5084743;28;19912;-54
2021/06/13 07:24:57;;;;;;;;;;;25.00;94.30;;;;;;5085139;28;19913;-54
2021/06/13 07:27:26;;;;;;;;;;;25.00;94.40;;;;;;5084774;28;19904;-55
2021/06/13 07:29:52;;;;;;;;;;;25.00;94.40;;;;;;5084928;28;19913;-54
2021/06/13 07:32:19;;;;;;;;;;;25.00;94.40;;;;;;5084430;28;19905;-56
2021/06/13 07:34:45;;;;;;;;;;;25.00;94.50;;;;;;5085816;28;19913;-54
2021/06/13 07:37:12;;;;;;;;;;;25.00;94.50;;;;;;5084755;28;19962;-57
2021/06/13 07:39:39;;;;;;;;;;;25.00;94.50;;;;;;5084717;28;19935;-54
2021/06/13 07:42:05;;;;;;;;;;;25.00;94.60;;;;;;5084787;28;19911;-53
2021/06/13 07:44:32;;;;;;;;;;;25.00;94.50;;;;;;5085223;28;19912;-54
2021/06/13 07:46:58;;;;;;;;;;;25.00;94.60;;;;;;5084440;28;20205;-57
2021/06/13 07:49:24;;;;;;;;;;;25.00;94.60;;;;;;5084796;28;19920;-52
2021/06/13 07:51:51;;;;;;;;;;;25.00;94.60;;;;;;5084632;28;19968;-57
2021/06/13 07:54:17;;;;;;;;;;;25.00;94.50;;;;;;5084486;28;19979;-55
2021/06/13 07:56:43;;;;;;;;;;;25.00;94.50;;;;;;5084456;28;19908;-57
2021/06/13 07:59:09;;;;;;;;;;;25.00;94.60;;;;;;5084555;28;19913;-56
2021/06/13 08:01:36;;;;;;;;;;;25.00;94.50;;;;;;5084492;28;19904;-62
2021/06/13 08:04:03;;;;;;;;;;;25.00;94.50;;;;;;5084497;28;19912;-54
2021/06/13 08:06:30;;;;;;;;;;;25.00;94.40;;;;;;5088649;28;19932;-57
2021/06/13 08:08:56;;;;;;;;;;;25.00;94.30;;;;;;5088255;28;19912;-54
2021/06/13 08:11:22;;;;;;;;;;;25.00;94.30;;;;;;5088540;28;20168;-54
2021/06/13 08:13:48;;;;;;;;;;;25.00;94.10;;;;;;5088396;28;19913;-54
2021/06/13 08:16:14;;;;;;;;;;;25.10;94.10;;;;;;5088613;28;19946;-54
2021/06/13 08:18:41;;;;;;;;;;;25.00;94.00;;;;;;5088119;28;19919;-55
2021/06/13 08:21:07;;;;;;;;;;;25.00;93.90;;;;;;5088519;28;19947;-54
2021/06/13 08:23:33;;;;;;;;;;;25.00;93.90;;;;;;5088249;28;20226;-55
2021/06/13 08:26:00;;;;;;;;;;;25.00;93.80;;;;;;5088172;28;19991;-56
2021/06/13 08:28:26;;;;;;;;;;;25.00;93.80;;;;;;5088099;28;19919;-55
2021/06/13 08:30:52;;;;;;;;;;;25.00;93.70;;;;;;5088253;28;19904;-53
2021/06/13 08:33:18;;;;;;;;;;;25.00;93.60;;;;;;5087844;28;19905;-55
2021/06/13 08:35:44;;;;;;;;;;;25.00;93.60;;;;;;5087964;28;20287;-56
2021/06/13 08:38:11;;;;;;;;;;;25.00;93.50;;;;;;5087960;28;19912;-54
2021/06/13 08:40:37;;;;;;;;;;;25.00;93.40;;;;;;5087479;28;19912;-54
2021/06/13 08:43:04;;;;;;;;;;;25.00;93.20;;;;;;5087733;28;19911;-54
2021/06/13 08:45:31;;;;;;;;;;;25.00;93.10;;;;;;5087748;28;19967;-53
2021/06/13 08:47:58;;;;;;;;;;;25.00;93.00;;;;;;5087410;28;19911;-55
2021/06/13 08:50:24;;;;;;;;;;;25.00;92.80;;;;;;5087885;28;19912;-57
2021/06/13 08:52:51;;;;;;;;;;;25.00;92.70;;;;;;5087650;28;20176;-53
2021/06/13 08:55:19;;;;;;;;;;;24.90;92.70;;;;;;5087206;28;19920;-54
2021/06/13 08:57:46;;;;;;;;;;;24.90;92.60;;;;;;5087799;28;19971;-54
2021/06/13 09:00:14;;;;;;;;;;;24.90;92.60;;;;;;5088195;28;19913;-54
2021/06/13 09:02:41;;;;;;;;;;;24.90;92.70;;;;;;5087393;28;19987;-55
2021/06/13 09:05:08;;;;;;;;;;;24.90;92.70;;;;;;5087692;28;19919;-54
2021/06/13 09:07:35;;;;;;;;;;;24.90;92.60;;;;;;5087463;28;20060;-55
2021/06/13 09:10:11;;;;;;;;;;;24.90;92.50;;;;;;5087285;28;19913;-56
2021/06/13 09:12:37;;;;;;;;;;;24.90;92.60;;;;;;5087154;28;19950;-55
2021/06/13 09:15:04;;;;;;;;;;;24.90;92.70;;;;;;5086864;28;20212;-54
2021/06/13 09:17:30;;;;;;;;;;;24.90;92.50;;;;;;5087092;28;19987;-54
2021/06/13 09:20:02;;;;;;;;;;;24.90;92.50;;;;;;5087732;28;19912;-56
2021/06/13 09:22:29;;;;;;;;;;;24.90;92.40;;;;;;5087109;28;19911;-54
2021/06/13 09:25:09;;;;;;;;;;;24.90;92.40;;;;;;5087267;28;20070;-58
2021/06/13 09:27:36;;;;;;;;;;;24.90;92.40;;;;;;5087003;28;19936;-57
2021/06/13 09:30:02;;;;;;;;;;;24.90;92.40;;;;;;5087102;28;19950;-57
2021/06/13 09:32:28;;;;;;;;;;;24.90;92.40;;;;;;5087175;28;19910;-55
2021/06/13 09:35:13;;;;;;;;;;;24.90;92.40;;;;;;5087601;28;20137;-55
2021/06/13 09:37:59;;;;;;;;;;;24.90;92.40;;;;;;5086831;28;20018;-54
2021/06/13 09:40:26;;;;;;;;;;;24.90;92.40;;;;;;5086775;28;19912;-59
2021/06/13 09:42:52;;;;;;;;;;;24.90;92.30;;;;;;5086588;28;19908;-56
2021/06/13 09:45:19;;;;;;;;;;;24.90;92.30;;;;;;5087366;28;19920;-56
2021/06/13 09:47:45;;;;;;;;;;;25.00;92.30;;;;;;5086570;28;20101;-55
2021/06/13 09:50:11;;;;;;;;;;;24.90;92.20;;;;;;5087107;28;20120;-56
2021/06/13 09:52:38;;;;;;;;;;;24.90;92.30;;;;;;5086719;28;19967;-57
2021/06/13 09:55:11;;;;;;;;;;;24.90;92.20;;;;;;5086473;28;20206;-57
2021/06/13 09:57:57;;;;;;;;;;;25.00;92.20;;;;;;5086346;28;19944;-56
2021/06/13 10:00:27;;;;;;;;;;;25.00;92.20;;;;;;5075837;28;19912;-55
2021/06/13 10:02:53;;;;;;;;;;;25.00;92.10;;;;;;5086337;28;19908;-57
2021/06/13 10:05:19;;;;;;;;;;;25.00;92.10;;;;;;5086793;28;19909;-53
2021/06/13 10:07:46;;;;;;;;;;;25.00;92.10;;;;;;5086451;28;19983;-58
2021/06/13 10:10:12;;;;;;;;;;;25.00;92.10;;;;;;5086387;28;19950;-53
2021/06/13 10:12:54;;;;;;;;;;;25.00;92.10;;;;;;5086181;28;20287;-52
2021/06/13 10:15:21;;;;;;;;;;;25.00;92.00;;;;;;5086177;28;19908;-54
2021/06/13 10:17:47;;;;;;;;;;;25.00;92.00;;;;;;5086273;28;19908;-53
2021/06/13 10:20:26;;;;;;;;;;;25.00;92.00;;;;;;5086411;28;19955;-55
2021/06/13 10:22:52;;;;;;;;;;;25.00;92.00;;;;;;5085997;28;19912;-55
2021/06/13 10:25:18;;;;;;;;;;;25.00;91.90;;;;;;5086576;28;19912;-54
2021/06/13 10:27:44;;;;;;;;;;;25.00;92.00;;;;;;5084755;28;19914;-55
2021/06/13 10:30:11;;;;;;;;;;;25.00;92.00;;;;;;5086111;28;19909;-55
2021/06/13 10:32:37;;;;;;;;;;;25.00;92.00;;;;;;5085510;28;19908;-55
2021/06/13 10:35:05;;;;;;;;;;;25.00;91.90;;;;;;5086028;28;19908;-57
2021/06/13 10:37:32;;;;;;;;;;;25.00;92.00;;;;;;5085838;28;19987;-53
2021/06/13 10:39:58;;;;;;;;;;;25.00;92.00;;;;;;5068218;28;19908;-55
2021/06/13 10:42:25;;;;;;;;;;;25.00;92.10;;;;;;5085202;28;19909;-55
2021/06/13 10:44:52;;;;;;;;;;;25.00;92.10;;;;;;5085329;28;19908;-55
2021/06/13 10:47:19;;;;;;;;;;;25.00;92.10;;;;;;5085377;28;19962;-55
2021/06/13 10:49:47;;;;;;;;;;;25.10;92.20;;;;;;5085508;28;19939;-54
2021/06/13 10:52:23;;;;;;;;;;;25.10;92.30;;;;;;5085076;28;19908;-58
2021/06/13 10:54:53;;;;;;;;;;;25.10;92.30;;;;;;5085555;28;19921;-57
2021/06/13 10:57:19;;;;;;;;;;;25.10;92.30;;;;;;5085007;28;19979;-56
2021/06/13 10:59:58;;;;;;;;;;;25.10;92.30;;;;;;5085371;28;19919;-58
2021/06/13 11:02:26;;;;;;;;;;;25.10;92.30;;;;;;5085483;28;19961;-56
2021/06/13 11:05:01;;;;;;;;;;;25.10;92.20;;;;;;5085243;28;20100;-55
2021/06/13 11:07:28;;;;;;;;;;;25.20;92.30;;;;;;5085215;28;19912;-58
2021/06/13 11:10:00;;;;;;;;;;;25.20;92.30;;;;;;5085288;28;19913;-58
2021/06/13 11:12:49;;;;;;;;;;;25.20;92.30;;;;;;5084746;28;19912;-55
2021/06/13 11:15:38;;;;;;;;;;;25.20;92.40;;;;;;5084881;28;19913;-57
2021/06/13 11:18:06;;;;;;;;;;;25.20;92.50;;;;;;5084900;28;19905;-54
2021/06/13 11:23:12;;;;;;;;;;;25.20;92.70;;;;;;5085085;28;19950;-54
2021/06/13 11:25:40;;;;;;;;;;;25.20;92.50;;;;;;5084704;28;20157;-56
2021/06/13 11:28:09;;;;;;;;;;;25.30;92.60;;;;;;5084522;28;19908;-56
2021/06/13 11:30:39;;;;;;;;;;;25.30;92.60;;;;;;5084689;28;19912;-53
2021/06/13 11:33:06;;;;;;;;;;;25.30;92.50;;;;;;5084665;28;19912;-55
2021/06/13 11:35:37;;;;;;;;;;;25.30;92.50;;;;;;5084863;28;20267;-54
2021/06/13 11:38:09;;;;;;;;;;;25.30;92.50;;;;;;5084656;28;19904;-55
2021/06/13 11:40:45;;;;;;;;;;;25.30;92.40;;;;;;5084321;28;19905;-53
2021/06/13 11:43:13;;;;;;;;;;;25.30;92.40;;;;;;5084330;28;19905;-57
2021/06/13 11:45:55;;;;;;;;;;;25.30;92.40;;;;;;5066687;28;19954;-52
2021/06/13 11:48:24;;;;;;;;;;;25.30;92.40;;;;;;5084220;28;20135;-53
2021/06/13 11:51:00;;;;;;;;;;;25.40;92.40;;;;;;5084305;28;19904;-52
2021/06/13 11:53:44;;;;;;;;;;;25.40;92.50;;;;;;5084742;28;20169;-54
2021/06/13 11:56:14;;;;;;;;;;;25.40;92.40;;;;;;5084027;28;20149;-54
2021/06/13 11:58:41;;;;;;;;;;;25.40;92.50;;;;;;5084231;28;19912;-55
2021/06/13 12:01:07;;;;;;;;;;;25.40;92.50;;;;;;5084279;28;19971;-55
2021/06/13 12:03:37;;;;;;;;;;;25.40;92.50;;;;;;5084118;28;20014;-52
2021/06/13 12:06:06;;;;;;;;;;;25.40;92.50;;;;;;5066621;28;20132;-54
2021/06/13 12:08:38;;;;;;;;;;;25.50;92.50;;;;;;5084325;28;20135;-56
2021/06/13 12:11:05;;;;;;;;;;;25.50;92.40;;;;;;5084137;28;19908;-54
2021/06/13 12:13:31;;;;;;;;;;;25.50;92.30;;;;;;5084513;28;19920;-55
2021/06/13 12:15:57;;;;;;;;;;;25.50;92.40;;;;;;5083942;28;20193;-54
2021/06/13 12:18:23;;;;;;;;;;;25.50;92.40;;;;;;5084056;28;19912;-55
2021/06/13 12:20:57;;;;;;;;;;;25.50;92.40;;;;;;5084238;28;20147;-57
2021/06/13 12:23:30;;;;;;;;;;;25.50;92.40;;;;;;5084115;28;19958;-57
2021/06/13 12:28:41;;;;;;;;;;;25.50;92.50;;;;;;5084117;28;19920;-56
2021/06/13 12:31:07;;;;;;;;;;;25.60;92.50;;;;;;5083819;28;19936;-55
2021/06/13 12:33:37;;;;;;;;;;;25.60;92.60;;;;;;5083963;28;19916;-60
2021/06/13 12:36:07;;;;;;;;;;;25.60;92.60;;;;;;5065817;28;20136;-55
2021/06/13 12:38:34;;;;;;;;;;;25.60;92.50;;;;;;5083974;28;19958;-55
2021/06/13 12:41:00;;;;;;;;;;;25.60;92.50;;;;;;5084190;28;19904;-56
2021/06/13 12:43:35;;;;;;;;;;;25.70;92.60;;;;;;5084057;28;19916;-57
2021/06/13 12:46:02;;;;;;;;;;;25.70;92.60;;;;;;5083703;28;19954;-56
2021/06/13 12:48:28;;;;;;;;;;;25.70;92.50;;;;;;5083899;28;19946;-58
2021/06/13 12:50:54;;;;;;;;;;;25.70;92.50;;;;;;5085452;28;19968;-54
2021/06/13 12:53:21;;;;;;;;;;;25.70;92.50;;;;;;5087309;28;19904;-57
2021/06/13 12:55:51;;;;;;;;;;;25.70;92.50;;;;;;5087523;28;19970;-55
2021/06/13 12:58:18;;;;;;;;;;;25.80;92.50;;;;;;5087438;28;19904;-55
2021/06/13 13:00:45;;;;;;;;;;;25.80;92.40;;;;;;5086635;28;19990;-49
2021/06/13 13:03:11;;;;;;;;;;;25.90;92.30;;;;;;5087088;28;19904;-50
2021/06/13 13:05:41;;;;;;;;;;;25.90;92.40;;;;;;5086860;28;19905;-56
2021/06/13 13:08:23;;;;;;;;;;;25.90;92.40;;;;;;5087119;28;20007;-52
2021/06/13 13:10:54;;;;;;;;;;;25.20;85.80;;;;;;5086919;28;19904;-54
2021/06/13 13:13:36;;;;;;;;;;;25.40;93.50;;;;;;5086897;28;19900;-44
2021/06/13 13:16:19;;;;;;;;;;;25.70;91.50;;;;;;5087057;28;19955;-55
2021/06/13 13:18:48;;;;;;;;;;;26.00;92.60;;;;;;5077632;28;19950;-53
2021/06/13 13:21:27;;;;;;;;;;;26.30;92.30;;;;;;5093363;28;20014;-53
2021/06/13 13:23:53;;;;;;;;;;;26.60;91.90;;;;;;5093157;28;20232;-54
2021/06/13 13:26:21;;;;;;;;;;;26.80;91.70;;;;;;5095952;28;19929;-53
2021/06/13 13:29:05;;;;;;;;;;;26.90;91.50;;;;;;5097218;28;19935;-52
2021/06/13 13:31:32;;;;;;;12.82;3.75;;;27.00;91.30;;;;;;5096896;28;19905;-46
2021/06/13 13:34:05;;;;;;;17.65;3.90;;;26.80;82.90;;;;;;5096431;28;20203;-50
2021/06/13 13:36:48;;;;;;;14.20;3.55;;;26.30;93.70;;;;;;5095865;28;20024;-49
2021/06/13 13:39:15;;;;;;;15.52;3.50;;;26.60;93.00;;;;;;5095694;28;20043;-51
2021/06/13 13:41:45;;;;;;;13.20;3.20;;;26.70;91.90;;;;;;5094590;28;20004;-50
2021/06/13 13:44:14;;;;;;;16.02;4.15;;;26.90;91.90;;;;;;5082482;28;20087;-51
2021/06/13 13:46:44;;;;;;;14.52;4.18;;;26.90;92.10;;;;;;5105993;28;19983;-50
2021/06/13 13:49:19;;;;;;;12.88;3.67;;;27.00;92.40;;;;;;5088006;28;20027;-52
2021/06/13 13:51:50;;;;;;;10.27;3.67;;;27.00;92.20;;;;;;5096629;28;20023;-50
2021/06/13 13:54:21;;;;;;;14.70;3.40;;;27.00;92.50;;;;;;5097824;28;20055;-49
2021/06/13 13:56:54;;;;;;;8.90;3.10;;;27.00;92.40;;;;;;5087914;28;20020;-50
2021/06/13 13:59:22;;;;;;;10.45;3.05;;;27.00;92.10;;;;;;5105700;28;20032;-49
2021/06/13 14:01:48;;;;;;;12.65;3.35;;;27.00;91.90;;;;;;5105720;28;20015;-47
2021/06/13 14:04:15;;;;;;;12.07;2.97;;;27.00;92.30;;;;;;5105896;28;20031;-48
2021/06/13 14:06:42;;;;;;;10.75;3.38;;;27.10;91.90;;;;;;5098399;28;20036;-49
2021/06/13 14:09:08;;;;;;;11.25;2.40;;;27.10;92.00;;;;;;5094157;28;20021;-49
2021/06/13 14:11:36;;;;;;;11.65;2.90;;;27.10;91.50;;;;;;5093953;28;20201;-49
2021/06/13 14:14:04;;;;;;;11.18;2.75;;;27.20;91.10;;;;;;5095613;28;20028;-46
2021/06/13 14:16:30;;;;;;;10.73;2.50;;;27.30;91.30;;;;;;5100050;28;20016;-52
2021/06/13 14:18:57;;;;;;;14.25;3.25;;;27.30;91.60;;;;;;5105696;28;20355;-57
2021/06/13 14:21:24;;;;;;;12.13;2.83;;;27.30;91.70;;;;;;5086488;28;20216;-53